»·PEaware :: FFT880 KELP-KTUS

FFT880 :: KELP-KTUS

FLIGHT INFORMATION

Flight Status: Arrived
Operator:
Frontier Airlines
More flights by this operator :: More flights under this callsign
Pilot: Ben L. (6391)
Aircraft: AIRBUS A320
(A320)
More flights by this aircraft type
Origin: KELP El Paso Intl
United States
Destination: KTUS Tucson Intl
United States
More flights between these airports :: More routes between these airports
Route: ATKNN5 FLOGS SSO J104 TUS
File this flight plan on PilotEdge
Remarks:
Altitude:
(Current/Filed)
38,000ft
Speed:
(Current/Filed)
470kts
Departed: 02-Jan-18 07:12 PM
Arrived: 02-Jan-18 08:07 PM
Distance/Time
Traveled:
233nm/0:54
Distance/Time
To Go:
Arrived

Flight Plot

Page will automatically refresh every two minutes.

Flight plan parsing failed; only flown route is shown


Map Options




Map Legend


Flown Route
Filed Route
Departure Airport
Arrival Airport
Navaid (VOR, NDB)
Fix

Horizontal Profiles

Position Reports

Time Latitude Longitude Heading Altitude Ground
Speed
02-Jan-18 18:52 31.800643 -106.393730 154 3967ft 0kts
02-Jan-18 18:53 31.800643 -106.393730 154 3967ft 0kts
02-Jan-18 18:54 31.800643 -106.393730 154 3967ft 0kts
02-Jan-18 18:55 31.800643 -106.393730 154 3967ft 0kts
02-Jan-18 18:56 31.800643 -106.393730 154 3967ft 0kts
02-Jan-18 18:57 31.800643 -106.393730 154 3967ft 0kts
02-Jan-18 18:58 31.800643 -106.393730 154 3967ft 0kts
02-Jan-18 18:59 31.800643 -106.393730 154 3967ft 0kts
02-Jan-18 19:00 31.800643 -106.393730 154 3967ft 0kts
02-Jan-18 19:01 31.800643 -106.393730 154 3967ft 0kts
02-Jan-18 19:02 31.800643 -106.393730 154 3967ft 0kts
02-Jan-18 19:03 31.800643 -106.393730 154 3967ft 0kts
02-Jan-18 19:04 31.800643 -106.393730 154 3967ft 0kts
02-Jan-18 19:05 31.800643 -106.393730 154 3967ft 0kts
02-Jan-18 19:06 31.800687 -106.393752 191 3967ft 1kts
02-Jan-18 19:07 31.801272 -106.393633 188 3967ft 2kts
02-Jan-18 19:08 31.801409 -106.393734 94 3967ft 0kts
02-Jan-18 19:09 31.801409 -106.393734 94 3967ft 0kts
02-Jan-18 19:10 31.801409 -106.393734 94 3967ft 0kts
02-Jan-18 19:11 31.801403 -106.393637 93 3967ft 4kts
02-Jan-18 19:12 31.799908 -106.390404 137 3967ft 14kts
02-Jan-18 19:13 31.800388 -106.388115 33 3967ft 6kts
02-Jan-18 19:14 31.801062 -106.387919 0 3967ft 0kts
02-Jan-18 19:15 31.801062 -106.387919 0 3967ft 0kts
02-Jan-18 19:16 31.801283 -106.387911 2 3967ft 6kts
02-Jan-18 19:17 31.801874 -106.384680 91 3967ft 0kts
02-Jan-18 19:18 31.800397 -106.360976 96 4425ft 161kts
02-Jan-18 19:19 31.786940 -106.307697 150 7309ft 207kts
02-Jan-18 19:20 31.746381 -106.349418 272 10327ft 266kts
02-Jan-18 19:21 31.759665 -106.429833 296 14540ft 249kts
02-Jan-18 19:22 31.786918 -106.516993 296 16427ft 322kts
02-Jan-18 19:23 31.814444 -106.622921 289 19049ft 350kts
02-Jan-18 19:24 31.834496 -106.732331 290 21839ft 352kts
02-Jan-18 19:25 31.854962 -106.844329 290 24437ft 352kts
02-Jan-18 19:26 31.875427 -106.957137 289 26684ft 355kts
02-Jan-18 19:27 31.895961 -107.070926 288 28667ft 358kts
02-Jan-18 19:28 31.916488 -107.185363 287 30526ft 358kts
02-Jan-18 19:29 31.936984 -107.300221 286 32133ft 360kts
02-Jan-18 19:30 31.957321 -107.414847 284 33686ft 356kts
02-Jan-18 19:31 31.977187 -107.527437 284 35130ft 351kts
02-Jan-18 19:32 31.996918 -107.639800 284 36279ft 350kts
02-Jan-18 19:33 32.016096 -107.749631 284 37307ft 352kts
02-Jan-18 19:34 32.035733 -107.862710 284 38213ft 353kts
02-Jan-18 19:35 32.055132 -107.975101 284 38384ft 349kts
02-Jan-18 19:36 32.074448 -108.087549 284 38392ft 351kts
02-Jan-18 19:37 32.093634 -108.199902 284 38403ft 350kts
02-Jan-18 19:38 32.112684 -108.312088 284 38418ft 351kts
02-Jan-18 19:39 32.131322 -108.422461 284 38413ft 351kts
02-Jan-18 19:40 32.150119 -108.534451 284 37327ft 347kts
02-Jan-18 19:41 32.168846 -108.646562 284 36275ft 349kts
02-Jan-18 19:42 32.186413 -108.752440 284 34880ft 341kts
02-Jan-18 19:43 32.204061 -108.859450 284 33337ft 322kts
02-Jan-18 19:44 32.220551 -108.959904 286 31876ft 305kts
02-Jan-18 19:45 32.236861 -109.059391 286 30400ft 316kts
02-Jan-18 19:46 32.253559 -109.162036 287 28838ft 322kts
02-Jan-18 19:47 32.267040 -109.249514 284 27498ft 329kts
02-Jan-18 19:48 32.257749 -109.379290 271 25518ft 345kts
02-Jan-18 19:49 32.246473 -109.491739 271 23776ft 347kts
02-Jan-18 19:50 32.236949 -109.586035 270 22297ft 346kts
02-Jan-18 19:51 32.226134 -109.692300 268 20630ft 343kts
02-Jan-18 19:52 32.212988 -109.820641 266 18618ft 360kts
02-Jan-18 19:53 32.205161 -109.896440 265 17389ft 358kts
02-Jan-18 19:54 32.193104 -110.011740 264 15537ft 351kts
02-Jan-18 19:55 32.181276 -110.124116 263 14091ft 333kts
02-Jan-18 19:56 32.169814 -110.232217 263 14068ft 333kts
02-Jan-18 19:57 32.158246 -110.340466 263 13779ft 336kts
02-Jan-18 19:58 32.146347 -110.450839 262 11680ft 335kts
02-Jan-18 19:59 32.134689 -110.557866 263 10059ft 318kts
02-Jan-18 20:00 32.137141 -110.650908 280 10014ft 259kts
02-Jan-18 20:01 32.149106 -110.730674 280 9538ft 250kts
02-Jan-18 20:02 32.160959 -110.811288 280 9011ft 249kts
02-Jan-18 20:03 32.172662 -110.891022 280 9006ft 247kts
02-Jan-18 20:04 32.184191 -110.970450 281 9009ft 246kts
02-Jan-18 20:05 32.235492 -111.001831 10 8293ft 235kts
02-Jan-18 20:06 32.298535 -110.993225 332 7299ft 232kts
02-Jan-18 20:07 32.299799 -111.052896 221 6914ft 210kts
02-Jan-18 20:08 32.253756 -111.064740 143 6513ft 178kts
02-Jan-18 20:09 32.215009 -111.037226 150 5714ft 149kts
02-Jan-18 20:10 32.180833 -111.012344 145 4318ft 138kts
02-Jan-18 20:11 32.150338 -110.979920 132 3422ft 149kts
02-Jan-18 20:12 32.122982 -110.947504 134 2685ft 134kts
02-Jan-18 20:13 32.111522 -110.932276 57 2652ft 11kts
02-Jan-18 20:14 32.114469 -110.935015 315 2652ft 19kts
02-Jan-18 20:15 32.117815 -110.938018 24 2652ft 13kts
02-Jan-18 20:16 32.118738 -110.937603 51 2652ft 0kts
02-Jan-18 20:17 32.118742 -110.937598 52 2652ft 0kts
02-Jan-18 20:18 32.118742 -110.937598 52 2652ft 0kts
02-Jan-18 20:19 32.118742 -110.937598 52 2652ft 0kts
02-Jan-18 20:20 32.118742 -110.937598 52 2652ft 0kts
02-Jan-18 20:21 32.118742 -110.937598 52 2652ft 0kts
02-Jan-18 20:22 32.118742 -110.937598 52 2652ft 0kts
02-Jan-18 20:23 32.118742 -110.937598 52 2652ft 0kts
02-Jan-18 20:24 32.118742 -110.937598 52 2652ft 0kts
02-Jan-18 20:25 32.118742 -110.937598 52 2652ft 0kts
02-Jan-18 20:26 32.118742 -110.937598 52 2652ft 0kts
02-Jan-18 20:27 32.118742 -110.937598 52 2652ft 0kts

Navigation Log

Ident Type
Flight plan parsing failed, navigation log unavailable